^^
Datos históricos de la estación: Murcia-Puente Tocinos
Diario Informe para Mayo 6, 2019 Unidades:  Métrico    Ingés   Ambas
Diario Semanal Mensual Anual
  Máxima: Mínima: Promedio:
Temperatura: 38 °C 24.9 °C 30.1 °C
Punto de rocio: 23 °C 16.2 °C 21.3 °C
Humedad: 88% 27.8% 64%
Velocidad viento: 20.1km/h 0km/h 7.9km/h
Racha viento: 32.2km/h - -
Viento- - ESE
Presión: 1011.7 hPa 1006.0 hPa -
Precipitación: 0.0 mm    
 
 
Tabla de datos para Mayo 6, 2019
Hora Temperatura Punto de rocio Presión Viento Velocidad viento Racha viento Humedad Intensidad lluvia(por hora) Nubes
00:04 26.7 °C 22.5 °C 1011.7 hPa NE 9.5 km/h 14.5 km/h 78% 0.0 mm
00:09 26.6 °C 22.5 °C 1011.7 hPa NE 9.4 km/h 14.5 km/h 78% 0.0 mm
00:14 26.6 °C 22.6 °C 1011.7 hPa NE 8.7 km/h 13 km/h 78.5% 0.0 mm
00:19 26.5 °C 22.6 °C 1011.7 hPa NNE 8.7 km/h 12.9 km/h 79% 0.0 mm
00:24 26.4 °C 22.5 °C 1011.5 hPa NNE 8.4 km/h 13 km/h 79.2% 0.0 mm
00:29 26.4 °C 22.6 °C 1011.5 hPa NNE 8.1 km/h 12.9 km/h 80% 0.0 mm
00:34 26.3 °C 22.6 °C 1011.6 hPa NE 6.9 km/h 13.7 km/h 80% 0.0 mm
00:39 26.2 °C 22.6 °C 1011.6 hPa NE 7.1 km/h 14.5 km/h 80.8% 0.0 mm
00:44 26.2 °C 22.7 °C 1011.6 hPa NNE 8.4 km/h 12.9 km/h 81% 0.0 mm
00:49 26.2 °C 22.7 °C 1011.6 hPa NE 8.1 km/h 13 km/h 81% 0.0 mm
00:54 26.1 °C 22.6 °C 1011.6 hPa NNE 6.9 km/h 15.6 km/h 81% 0.0 mm
00:59 26.1 °C 22.7 °C 1011.6 hPa NNE 7.2 km/h 16.1 km/h 81.8% 0.0 mm
01:04 26.1 °C 22.8 °C 1011.6 hPa NNE 8.4 km/h 13.7 km/h 82% 0.0 mm
01:09 26 °C 22.7 °C 1011.5 hPa NNE 8.2 km/h 14.5 km/h 82% 0.0 mm
01:14 26 °C 22.7 °C 1011.5 hPa NE 7.6 km/h 14.8 km/h 82% 0.0 mm
01:19 26 °C 22.8 °C 1011.6 hPa NE 7.6 km/h 14.5 km/h 82.6% 0.0 mm
01:24 25.9 °C 22.8 °C 1011.6 hPa NE 7.6 km/h 13.7 km/h 83% 0.0 mm
01:29 25.9 °C 22.8 °C 1011.6 hPa NE 7.5 km/h 14.5 km/h 83% 0.0 mm
01:34 25.8 °C 22.7 °C 1011.6 hPa NNE 6.9 km/h 11.3 km/h 83% 0.0 mm
01:39 25.8 °C 22.8 °C 1011.6 hPa NNE 6.6 km/h 11.3 km/h 83.6% 0.0 mm
01:44 25.8 °C 22.9 °C 1011.6 hPa NNE 5 km/h 11.3 km/h 84% 0.0 mm
01:49 25.7 °C 22.8 °C 1011.6 hPa NNE 5.3 km/h 11.3 km/h 84% 0.0 mm
01:54 25.7 °C 22.8 °C 1011.5 hPa NNE 6.9 km/h 11.3 km/h 84% 0.0 mm
01:59 25.7 °C 22.8 °C 1011.5 hPa NNE 6.8 km/h 11.3 km/h 84% 0.0 mm
02:04 25.7 °C 22.8 °C 1011.5 hPa NNE 6.5 km/h 11.3 km/h 84.3% 0.0 mm
02:09 25.7 °C 23 °C 1011.5 hPa NNE 6.3 km/h 9.7 km/h 85% 0.0 mm
02:14 25.7 °C 22.9 °C 1011.5 hPa NNE 5.8 km/h 10 km/h 84.9% 0.0 mm
02:19 25.6 °C 22.9 °C 1011.5 hPa NE 5.7 km/h 10 km/h 85% 0.0 mm
02:24 25.6 °C 22.9 °C 1011.4 hPa NE 5 km/h 10 km/h 85% 0.0 mm
02:29 25.6 °C 22.9 °C 1011.4 hPa NE 5.2 km/h 9.7 km/h 85% 0.0 mm
02:34 25.6 °C 22.9 °C 1011.4 hPa NNE 6.4 km/h 11.1 km/h 85% 0.0 mm
02:39 25.6 °C 22.8 °C 1011.3 hPa NNE 6.5 km/h 11.9 km/h 85% 0.0 mm
02:44 25.5 °C 22.7 °C 1011.3 hPa NNE 6.9 km/h 11.3 km/h 85% 0.0 mm
02:49 25.4 °C 22.8 °C 1011.3 hPa NNE 6.9 km/h 11.3 km/h 85.6% 0.0 mm
02:54 25.4 °C 22.9 °C 1011.1 hPa NNE 6.5 km/h 9.7 km/h 86% 0.0 mm
02:59 25.4 °C 22.9 °C 1011.1 hPa NE 6.1 km/h 11.1 km/h 86% 0.0 mm
03:04 25.4 °C 22.9 °C 1011.3 hPa NE 4.7 km/h 11.3 km/h 86% 0.0 mm
03:09 25.4 °C 22.9 °C 1011.3 hPa NE 4.4 km/h 8 km/h 86% 0.0 mm
03:14 25.4 °C 22.9 °C 1011.3 hPa North 3.2 km/h 8 km/h 86% 0.0 mm
03:19 25.4 °C 22.9 °C 1011.3 hPa NNE 3.2 km/h 9.3 km/h 86% 0.0 mm
03:24 25.4 °C 22.9 °C 1011.1 hPa North 3.2 km/h 9.7 km/h 86% 0.0 mm
03:29 25.4 °C 22.9 °C 1011.1 hPa NNE 3.1 km/h 8 km/h 86% 0.0 mm
03:34 25.4 °C 22.9 °C 1011.2 hPa NNE 2.2 km/h 8.4 km/h 86% 0.0 mm
03:39 25.4 °C 22.9 °C 1011.2 hPa NO 2.4 km/h 8 km/h 86% 0.0 mm
03:44 25.4 °C 22.9 °C 1011.2 hPa NO 3.2 km/h 8 km/h 86% 0.0 mm
03:49 25.4 °C 22.9 °C 1011.2 hPa NO 3.2 km/h 6.4 km/h 86% 0.0 mm
03:54 25.3 °C 22.8 °C 1011.2 hPa NO 2.9 km/h 4.8 km/h 86% 0.0 mm
03:59 25.3 °C 22.8 °C 1011.2 hPa NO 2.3 km/h 4.7 km/h 86% 0.0 mm
04:04 25.3 °C 22.8 °C 1011.2 hPa Calm   4.8 km/h 86% 0.0 mm
04:09 25.3 °C 22.9 °C 1011.1 hPa Calm   7.4 km/h 86.6% 0.0 mm
04:14 25.3 °C 23 °C 1011.1 hPa Calm   8 km/h 87% 0.0 mm
04:19 25.3 °C 23 °C 1011.1 hPa ONO 0.3 km/h 5.6 km/h 87% 0.0 mm
04:24 25.3 °C 23 °C 1011.0 hPa ONO 2.2 km/h 4.8 km/h 87% 0.0 mm
04:29 25.3 °C 23 °C 1011.0 hPa ONO 1.9 km/h   87% 0.0 mm
04:34 25.3 °C 23 °C 1011.0 hPa Calm     87% 0.0 mm
04:39 25.3 °C 23 °C 1010.9 hPa Calm   7.4 km/h 87% 0.0 mm
04:44 25.3 °C 23 °C 1010.9 hPa Calm   8 km/h 87% 0.0 mm
04:49 25.3 °C 23 °C 1010.9 hPa NE 0.4 km/h 4.8 km/h 87% 0.0 mm
04:54 25.3 °C 23 °C 1010.9 hPa NE 2.2 km/h 3.2 km/h 87% 0.0 mm
04:59 25.3 °C 23 °C 1010.9 hPa NE 1.8 km/h   87% 0.0 mm
05:04 25.3 °C 23 °C 1010.9 hPa Calm     87% 0.0 mm
05:09 25.3 °C 23 °C 1010.8 hPa Calm     87% 0.0 mm
05:14 25.3 °C 23 °C 1010.8 hPa Calm   7.4 km/h 87% 0.0 mm
05:19 25.3 °C 23 °C 1010.8 hPa NNO 0.4 km/h 8 km/h 87% 0.0 mm
05:24 25.3 °C 23 °C 1010.6 hPa NO 2.2 km/h 8.7 km/h 87% 0.0 mm
05:29 25.3 °C 23 °C 1010.6 hPa NO 2.4 km/h 9.7 km/h 87% 0.0 mm
05:34 25.2 °C 22.9 °C 1010.6 hPa ONO 3.2 km/h 10 km/h 87% 0.0 mm
05:39 25.2 °C 22.8 °C 1010.4 hPa NO 3.5 km/h 9.7 km/h 87% 0.0 mm
05:44 25.1 °C 22.8 °C 1010.4 hPa NO 5 km/h 8 km/h 87% 0.0 mm
05:49 25.1 °C 22.8 °C 1010.6 hPa NNO 4.7 km/h 8 km/h 87% 0.0 mm
05:54 25.1 °C 22.8 °C 1010.6 hPa NNO 2.9 km/h 6.4 km/h 87% 0.0 mm
05:59 25.1 °C 22.8 °C 1010.6 hPa NNO 2.3 km/h 3.2 km/h 87% 0.0 mm
06:04 25.1 °C 22.7 °C 1010.8 hPa Calm     87% 0.0 mm
06:09 25.1 °C 22.9 °C 1010.8 hPa Calm   3.9 km/h 88% 0.0 mm
06:14 25 °C 22.7 °C 1010.8 hPa Calm   9.3 km/h 87.2% 0.0 mm
06:19 24.9 °C 22.6 °C 1010.8 hPa SSE 0.8 km/h 9.7 km/h 87% 0.0 mm
06:24 24.9 °C 22.8 °C 1010.7 hPa SSE 5 km/h 8 km/h 87.9% 0.0 mm
06:29 24.9 °C 22.8 °C 1010.7 hPa Sur 4.8 km/h 8 km/h 88% 0.0 mm
06:34 24.9 °C 22.8 °C 1010.7 hPa Sur 3.9 km/h 8 km/h 88% 0.0 mm
06:39 25 °C 22.9 °C 1010.5 hPa Sur 3.6 km/h 7.4 km/h 88% 0.0 mm
06:44 25.1 °C 22.8 °C 1010.5 hPa SO 2.2 km/h 8 km/h 87.4% 0.0 mm
06:49 25.1 °C 22.8 °C 1010.5 hPa SO 2.5 km/h 8 km/h 87% 0.0 mm
06:54 25.1 °C 22.8 °C 1010.5 hPa SSO 3.9 km/h 9.3 km/h 87% 0.0 mm
06:59 25.2 °C 22.7 °C 1010.5 hPa Sur 4.2 km/h 9.7 km/h 86.3% 0.0 mm
07:04 25.2 °C 22.7 °C 1010.5 hPa SO 5.8 km/h 9.7 km/h 86% 0.0 mm
07:09 25.2 °C 22.7 °C 1010.5 hPa SO 5.8 km/h 9.7 km/h 86% 0.0 mm
07:14 25.3 °C 22.7 °C 1010.5 hPa SO 5.8 km/h 9.7 km/h 86% 0.0 mm
07:19 25.3 °C 22.7 °C 1010.5 hPa Oeste 5.6 km/h 9.7 km/h 85.7% 0.0 mm
07:24 25.2 °C 22.6 °C 1010.5 hPa ONO 4.7 km/h 8 km/h 85.6% 0.0 mm
07:29 25.2 °C 22.7 °C 1010.5 hPa ONO 4.4 km/h 8 km/h 86% 0.0 mm
07:34 25.2 °C 22.7 °C 1010.7 hPa ONO 2.9 km/h 8 km/h 86% 0.0 mm
07:39 25.1 °C 22.6 °C 1010.7 hPa ONO 2.8 km/h 6.4 km/h 86% 0.0 mm
07:44 25.1 °C 22.6 °C 1010.7 hPa ONO 2.2 km/h 7.4 km/h 86% 0.0 mm
07:49 25.1 °C 22.6 °C 1010.8 hPa ONO 2.4 km/h 8 km/h 86% 0.0 mm
07:54 25.2 °C 22.6 °C 1010.8 hPa Oeste 3.2 km/h 9.3 km/h 86% 0.0 mm
07:59 25.2 °C 22.6 °C 1010.8 hPa SSE 3.6 km/h 9.7 km/h 85.6% 0.0 mm
08:04 25.2 °C 22.6 °C 1011.0 hPa Sur 5 km/h 9.5 km/h 85% 0.0 mm
08:09 25.3 °C 22.6 °C 1011.0 hPa SSE 5.3 km/h 10 km/h 84.9% 0.0 mm
08:14 25.4 °C 22.5 °C 1011.0 hPa SSE 6.9 km/h 9.7 km/h 84% 0.0 mm
08:19 25.4 °C 22.5 °C 1011.2 hPa SSE 6.7 km/h 9.7 km/h 84% 0.0 mm
08:24 25.6 °C 22.7 °C 1011.2 hPa SSE 5.8 km/h 8 km/h 84% 0.0 mm
08:29 25.7 °C 22.6 °C 1011.2 hPa SSE 5.6 km/h 8.4 km/h 83.2% 0.0 mm
08:34 25.7 °C 22.6 °C 1011.3 hPa SE 4.7 km/h 8 km/h 83% 0.0 mm
08:39 25.8 °C 22.7 °C 1011.3 hPa ESE 4.7 km/h 9.3 km/h 83% 0.0 mm
08:44 25.8 °C 22.7 °C 1011.3 hPa Este 5 km/h 9.7 km/h 83% 0.0 mm
08:49 25.8 °C 22.7 °C 1011.4 hPa Este 5 km/h 8 km/h 83% 0.0 mm
08:54 26 °C 22.9 °C 1011.4 hPa Este 5 km/h 8 km/h 82.9% 0.0 mm
08:59 26.3 °C 22.9 °C 1011.4 hPa Este 3.9 km/h 4.8 km/h 81.4% 0.0 mm
09:04 26.7 °C 22.9 °C 1011.4 hPa Calm   1.6 km/h 80.1% 0.0 mm
09:09 26.9 °C 22.9 °C 1011.4 hPa Calm     78.4% 0.0 mm
09:14 27.3 °C 22.9 °C 1011.4 hPa Calm     77.3% 0.0 mm
09:19 27.5 °C 23 °C 1011.6 hPa Calm   5.6 km/h 76.4% 0.0 mm
09:24 27.7 °C 22.9 °C 1011.6 hPa Calm   7.6 km/h 75.1% 0.0 mm
09:29 27.8 °C 22.8 °C 1011.6 hPa NO 0.7 km/h 11.1 km/h 74.4% 0.0 mm
09:34 27.7 °C 22.8 °C 1011.6 hPa NNO 3.9 km/h 11.3 km/h 74.6% 0.0 mm
09:39 27.7 °C 22.9 °C 1011.3 hPa ENE 3.7 km/h 8 km/h 75% 0.0 mm
09:44 27.8 °C 22.9 °C 1011.3 hPa NNE 2.9 km/h 8 km/h 75% 0.0 mm
09:49 28 °C 22.9 °C 1011.6 hPa North 2.8 km/h 7.6 km/h 74.2% 0.0 mm
09:54 28.1 °C 22.9 °C 1011.6 hPa ONO 2.2 km/h 8 km/h 73.7% 0.0 mm
09:59 27.9 °C 22.9 °C 1011.6 hPa ONO 2.7 km/h 8 km/h 74% 0.0 mm
10:04 27.8 °C 22.9 °C 1011.6 hPa ONO 4.6 km/h 8 km/h 74.7% 0.0 mm
10:09 27.9 °C 23 °C 1011.6 hPa North 4.5 km/h 9.3 km/h 74.5% 0.0 mm
10:14 28.1 °C 23 °C 1011.6 hPa North 3.9 km/h 10.3 km/h 74.2% 0.0 mm
10:19 28.1 °C 22.8 °C 1011.6 hPa Oeste 3.9 km/h 11.3 km/h 73% 0.0 mm
10:24 28.1 °C 22.8 °C 1011.5 hPa OSO 3.9 km/h 11.3 km/h 73% 0.0 mm
10:29 28.1 °C 22.8 °C 1011.5 hPa ONO 4.2 km/h 14.8 km/h 73% 0.0 mm
10:34 28.1 °C 22.8 °C 1011.5 hPa NO 5.8 km/h 14.8 km/h 73% 0.0 mm
10:39 28.1 °C 22.8 °C 1011.5 hPa North 5.9 km/h 12.9 km/h 73.3% 0.0 mm
10:44 28.3 °C 22.9 °C 1011.5 hPa ESE 6.4 km/h 9.7 km/h 72.4% 0.0 mm
10:49 28.7 °C 23 °C 1011.6 hPa ESE 5.3 km/h 5 km/h 71.1% 0.0 mm
10:54 29 °C 22.8 °C 1011.6 hPa Calm   8.4 km/h 69.1% 0.0 mm
10:59 29.2 °C 22.8 °C 1011.6 hPa Este 1.1 km/h 8 km/h 68.6% 0.0 mm
11:04 29.2 °C 22.7 °C 1011.6 hPa ENE 5 km/h 11.1 km/h 68.2% 0.0 mm
11:09 29.2 °C 22.6 °C 1011.5 hPa NNE 5.3 km/h 11.9 km/h 67.8% 0.0 mm
11:14 29.3 °C 22.7 °C 1011.4 hPa ENE 6.4 km/h 11.3 km/h 68% 0.0 mm
11:19 29.4 °C 22.6 °C 1011.5 hPa NNE 6.2 km/h 11.1 km/h 66.8% 0.0 mm
11:24 29.6 °C 22.4 °C 1011.5 hPa ONO 5 km/h 11.3 km/h 65.3% 0.0 mm
11:29 29.6 °C 22.1 °C 1011.5 hPa Oeste 5 km/h 9.7 km/h 64.3% 0.0 mm
11:34 29.7 °C 22.1 °C 1011.5 hPa Oeste 5 km/h 9.7 km/h 63.8% 0.0 mm
11:39 29.8 °C 22 °C 1011.2 hPa SO 4.8 km/h 10 km/h 62.9% 0.0 mm
11:44 30.1 °C 22.2 °C 1011.2 hPa NNO 3.9 km/h 11.1 km/h 62.6% 0.0 mm
11:49 30.3 °C 22 °C 1011.2 hPa ONO 4.2 km/h 11.3 km/h 61.1% 0.0 mm
11:54 30.4 °C 22 °C 1011.0 hPa OSO 5.8 km/h 9.7 km/h 61% 0.0 mm
11:59 30.5 °C 22 °C 1011.0 hPa Oeste 5.6 km/h 10 km/h 60.6% 0.0 mm
12:04 30.7 °C 22 °C 1011.0 hPa NNE 4.7 km/h 9.7 km/h 59.6% 0.0 mm
12:09 31.1 °C 21.8 °C 1011.0 hPa ENE 4.7 km/h 9.3 km/h 57.8% 0.0 mm
12:14 31.5 °C 21.7 °C 1011.0 hPa Este 4.7 km/h 11.1 km/h 56% 0.0 mm
12:19 31.8 °C 21.6 °C 1011.0 hPa ONO 4.5 km/h 11.3 km/h 54.9% 0.0 mm
12:24 31.8 °C 21.6 °C 1011.0 hPa NNE 3.9 km/h 11.3 km/h 54.7% 0.0 mm
12:29 32 °C 21.8 °C 1011.0 hPa ENE 4 km/h 11.3 km/h 54.9% 0.0 mm
12:34 32.3 °C 21.8 °C 1011.0 hPa ENE 5 km/h 9.5 km/h 54.2% 0.0 mm
12:39 32.6 °C 21.8 °C 1010.9 hPa NNE 4.9 km/h 11.9 km/h 53.1% 0.0 mm
12:44 32.6 °C 21.8 °C 1010.9 hPa North 4.7 km/h 11.3 km/h 53% 0.0 mm
12:49 32.8 °C 21.8 °C 1010.9 hPa NNE 4.9 km/h 13 km/h 52.5% 0.0 mm
12:54 32.9 °C 21.7 °C 1010.6 hPa NE 6.4 km/h 13 km/h 52% 0.0 mm
12:59 33 °C 21.7 °C 1010.6 hPa NNE 6.6 km/h 12.9 km/h 51.6% 0.0 mm
13:04 33.2 °C 21.8 °C 1010.6 hPa NNE 6.9 km/h 11.3 km/h 51.2% 0.0 mm
13:09 33.4 °C 21.7 °C 1010.5 hPa North 6.7 km/h 13 km/h 50.3% 0.0 mm
13:14 33.7 °C 21.7 °C 1010.5 hPa NE 5.8 km/h 12.9 km/h 49.7% 0.0 mm
13:19 33.9 °C 21.4 °C 1010.5 hPa NNE 5.8 km/h 13 km/h 48.1% 0.0 mm
13:24 34.1 °C 21.4 °C 1010.3 hPa North 5.8 km/h 12.9 km/h 47.6% 0.0 mm
13:29 34.2 °C 21.7 °C 1010.2 hPa NE 6 km/h 14.8 km/h 48% 0.0 mm
13:34 34.3 °C 21.2 °C 1010.2 hPa NNE 6.9 km/h 16.7 km/h 46.4% 0.0 mm
13:39 34.3 °C 21.4 °C 1010.0 hPa ENE 7 km/h 16.1 km/h 46.9% 0.0 mm
13:44 34.4 °C 21.2 °C 1009.9 hPa NNE 7.6 km/h 14.8 km/h 46.4% 0.0 mm
13:49 34.6 °C 20.7 °C 1009.9 hPa ENE 7.6 km/h 14.5 km/h 44.4% 0.0 mm
13:54 34.8 °C 21 °C 1009.7 hPa NNE 7.6 km/h 16.7 km/h 44.6% 0.0 mm
13:59 35.1 °C 20.7 °C 1009.7 hPa NE 7.7 km/h 16.7 km/h 43.1% 0.0 mm
14:04 35.2 °C 20.5 °C 1009.7 hPa NNE 8.4 km/h 16.1 km/h 42.5% 0.0 mm
14:09 35.3 °C 20.4 °C 1009.5 hPa NE 8.4 km/h 16.1 km/h 41.9% 0.0 mm
14:14 35.4 °C 20.1 °C 1009.5 hPa NE 8.4 km/h 16.1 km/h 40.9% 0.0 mm
14:19 35.6 °C 20 °C 1009.5 hPa NNE 8.6 km/h 20.9 km/h 40.1% 0.0 mm
14:24 35.8 °C 19.6 °C 1009.2 hPa NE 9.5 km/h 20.9 km/h 38.8% 0.0 mm
14:29 36 °C 19 °C 1009.2 hPa NNE 9.3 km/h 19.3 km/h 37% 0.0 mm
14:34 36.3 °C 19.1 °C 1009.2 hPa NNE 8.4 km/h 19.3 km/h 36.7% 0.0 mm
14:39 36.4 °C 18.9 °C 1009.0 hPa NNE 8.4 km/h 19.3 km/h 36% 0.0 mm
14:44 36.6 °C 19 °C 1009.0 hPa ENE 8.7 km/h 17.7 km/h 35.8% 0.0 mm
14:49 36.8 °C 18.9 °C 1009.0 hPa NNE 8.3 km/h 18 km/h 35.2% 0.0 mm
14:54 37.1 °C 18.6 °C 1008.8 hPa NE 6.5 km/h 19.3 km/h 33.8% 0.0 mm
14:59 37.2 °C 18.7 °C 1008.8 hPa NE 7.1 km/h 16.1 km/h 33.9% 0.0 mm
15:04 37.3 °C 18.6 °C 1008.8 hPa NE 9.5 km/h 16.7 km/h 33.5% 0.0 mm
15:09 37.3 °C 18.8 °C 1008.5 hPa NE 9.4 km/h 19 km/h 34% 0.0 mm
15:14 37.3 °C 18.9 °C 1008.5 hPa NE 8.7 km/h 19.3 km/h 34.2% 0.0 mm
15:19 37.3 °C 19.2 °C 1008.5 hPa NE 8.7 km/h 19 km/h 34.8% 0.0 mm
15:24 37.5 °C 19 °C 1008.5 hPa ENE 8.7 km/h 19.3 km/h 34.1% 0.0 mm
15:29 37.7 °C 18.8 °C 1008.5 hPa ONO 8.9 km/h 24.1 km/h 33.4% 0.0 mm
15:34 37.7 °C 18.7 °C 1008.5 hPa SSE 10 km/h 24.1 km/h 33% 0.0 mm
15:39 37.9 °C 18.7 °C 1008.2 hPa SE 10.2 km/h 27.8 km/h 32.7% 0.0 mm
15:44 37.9 °C 18.4 °C 1008.2 hPa ESE 11.1 km/h 27.4 km/h 32% 0.0 mm
15:49 37.7 °C 18.4 °C 1008.2 hPa ESE 12 km/h 27.8 km/h 32.5% 0.0 mm
15:54 37.6 °C 18.6 °C 1008.2 hPa ESE 16.4 km/h 27.4 km/h 33% 0.0 mm
15:59 37.6 °C 18.6 °C 1008.2 hPa SSE 15.7 km/h 24.1 km/h 32.9% 0.0 mm
16:04 37.7 °C 18.6 °C 1008.2 hPa SE 13 km/h 19.3 km/h 33% 0.0 mm
16:09 37.8 °C 18.6 °C 1008.0 hPa SE 12.8 km/h 25.9 km/h 32.6% 0.0 mm
16:14 37.8 °C 18.3 °C 1008.0 hPa SE 11.9 km/h 25.7 km/h 32% 0.0 mm
16:19 37.9 °C 18.3 °C 1008.0 hPa ESE 12.2 km/h 27 km/h 32% 0.0 mm
16:24 37.8 °C 18.2 °C 1007.8 hPa ESE 13.7 km/h 28.2 km/h 31.9% 0.0 mm
16:29 37.7 °C 17.9 °C 1007.8 hPa ESE 14.2 km/h 29.6 km/h 31.4% 0.0 mm
16:34 37.8 °C 17.6 °C 1007.8 hPa ESE 17.2 km/h 29 km/h 30.6% 0.0 mm
16:39 37.8 °C 17.1 °C 1007.5 hPa ESE 17 km/h 28.2 km/h 29.7% 0.0 mm
16:44 37.8 °C 16.7 °C 1007.4 hPa SE 16.1 km/h 28.2 km/h 29.1% 0.0 mm
16:49 38 °C 16.4 °C 1007.4 hPa ESE 15.9 km/h 27.4 km/h 28.3% 0.0 mm
16:54 37.9 °C 16.2 °C 1007.2 hPa ESE 14.8 km/h 31.7 km/h 27.8% 0.0 mm
16:59 37.8 °C 16.2 °C 1007.2 hPa ESE 15.3 km/h 32.2 km/h 28% 0.0 mm
17:04 37.9 °C 16.2 °C 1007.2 hPa ESE 17.2 km/h 25.9 km/h 28% 0.0 mm
17:09 37.9 °C 16.2 °C 1007.2 hPa ESE 17 km/h 26.2 km/h 28% 0.0 mm
17:14 37.8 °C 16.2 °C 1007.2 hPa ESE 16.1 km/h 25.9 km/h 28% 0.0 mm
17:19 37.8 °C 16.7 °C 1007.2 hPa ESE 16 km/h 25.7 km/h 28.9% 0.0 mm
17:24 37.9 °C 17.1 °C 1006.9 hPa ESE 15.6 km/h 29.6 km/h 29.7% 0.0 mm
17:29 37.9 °C 16.8 °C 1006.9 hPa ESE 15.7 km/h 29 km/h 29% 0.0 mm
17:34 37.8 °C 17.3 °C 1006.9 hPa ESE 16.1 km/h 25.9 km/h 30.1% 0.0 mm
17:39 37.7 °C 17.7 °C 1006.8 hPa ESE 16.1 km/h 25.7 km/h 31% 0.0 mm
17:44 37.8 °C 17.5 °C 1006.8 hPa ESE 16.1 km/h 25.7 km/h 30.5% 0.0 mm
17:49 37.9 °C 17.2 °C 1006.8 hPa ESE 15.7 km/h 22.5 km/h 29.7% 0.0 mm
17:54 37.9 °C 16.8 °C 1006.6 hPa ESE 13.7 km/h 25.9 km/h 29% 0.0 mm
17:59 37.9 °C 17.6 °C 1006.6 hPa ESE 14.1 km/h 26.2 km/h 30.5% 0.0 mm
18:04 37.9 °C 17.9 °C 1006.6 hPa ESE 15.6 km/h 25.7 km/h 31.2% 0.0 mm
18:09 37.8 °C 18.6 °C 1006.5 hPa ESE 15.6 km/h 26.2 km/h 32.8% 0.0 mm
18:14 37.6 °C 19 °C 1006.5 hPa ESE 15.6 km/h 25.9 km/h 33.8% 0.0 mm
18:19 37.4 °C 19.4 °C 1006.5 hPa ESE 15.7 km/h 26.2 km/h 35% 0.0 mm
18:24 37.3 °C 19.6 °C 1006.4 hPa SE 16.1 km/h 27 km/h 35.8% 0.0 mm
18:29 37.3 °C 19.7 °C 1006.4 hPa ESE 15.9 km/h 27.4 km/h 36% 0.0 mm
18:34 37.1 °C 19.6 °C 1006.4 hPa ESE 14.8 km/h 29.8 km/h 36% 0.0 mm
18:39 36.8 °C 19.3 °C 1006.3 hPa ESE 15.7 km/h 30.6 km/h 36% 0.0 mm
18:44 36.7 °C 19.2 °C 1006.3 hPa ESE 20.1 km/h 29 km/h 36% 0.0 mm
18:49 36.6 °C 19.1 °C 1006.3 hPa ESE 19.5 km/h 27.4 km/h 36% 0.0 mm
18:54 36.6 °C 19.1 °C 1006.1 hPa ESE 16.4 km/h 25.9 km/h 36% 0.0 mm
18:59 36.6 °C 19.1 °C 1006.1 hPa ESE 16.2 km/h 25.9 km/h 36% 0.0 mm
19:04 36.4 °C 19.2 °C 1006.1 hPa ESE 15.6 km/h 26.2 km/h 36.5% 0.0 mm
19:09 36.2 °C 19.2 °C 1006.1 hPa ESE 15.9 km/h 25.9 km/h 37% 0.0 mm
19:14 36.3 °C 19.3 °C 1006.1 hPa ESE 17.2 km/h 25.9 km/h 37% 0.0 mm
19:19 36.2 °C 18.9 °C 1006.1 hPa ESE 16.8 km/h 25.9 km/h 36.3% 0.0 mm
19:24 36.2 °C 19 °C 1006.0 hPa ESE 14.8 km/h 25.7 km/h 36.5% 0.0 mm
19:29 36.1 °C 18.8 °C 1006.0 hPa ESE 14.8 km/h 24.1 km/h 36.1% 0.0 mm
19:34 36.1 °C 18.6 °C 1006.2 hPa ESE 14.8 km/h 24.1 km/h 36% 0.0 mm
19:39 35.9 °C 18.3 °C 1006.2 hPa ESE 14.6 km/h 22.5 km/h 35.5% 0.0 mm
19:44 35.9 °C 18.2 °C 1006.2 hPa ESE 13.7 km/h 27.8 km/h 35.4% 0.0 mm
19:49 35.7 °C 18.3 °C 1006.2 hPa ESE 14 km/h 28.2 km/h 36% 0.0 mm
19:54 35.6 °C 18.2 °C 1006.1 hPa ESE 15.6 km/h 27.4 km/h 36% 0.0 mm
19:59 35.5 °C 18.1 °C 1006.1 hPa ESE 14.8 km/h 24.1 km/h 36% 0.0 mm
20:04 35.4 °C 18 °C 1006.2 hPa ESE 11.9 km/h 22.5 km/h 35.9% 0.0 mm
20:09 35.3 °C 17.9 °C 1006.2 hPa ESE 11.6 km/h 22.5 km/h 35.9% 0.0 mm
20:14 35.2 °C 17.2 °C 1006.2 hPa ESE 10.3 km/h 16.7 km/h 34.5% 0.0 mm
20:19 35.2 °C 17.1 °C 1006.4 hPa Este 9.8 km/h 16.1 km/h 34.4% 0.0 mm
20:24 35 °C 18.1 °C 1006.4 hPa North 7.6 km/h 11.3 km/h 36.8% 0.0 mm
20:29 34.6 °C 19.3 °C 1006.4 hPa NE 7.8 km/h 26.2 km/h 40.7% 0.0 mm
20:34 33.5 °C 20 °C 1006.8 hPa NNE 8.7 km/h 25.9 km/h 45.1% 0.0 mm
20:39 32.6 °C 20.3 °C 1006.8 hPa NNE 10.2 km/h 29.6 km/h 48.2% 0.0 mm
20:44 32 °C 20.8 °C 1006.8 hPa NNE 16.4 km/h 30.9 km/h 51.7% 0.0 mm
20:49 31.6 °C 21.2 °C 1006.9 hPa NNE 16.8 km/h 32.2 km/h 54.1% 0.0 mm
20:54 31.2 °C 21.5 °C 1006.9 hPa NE 18.4 km/h 32.2 km/h 56.3% 0.0 mm
20:59 30.9 °C 21.7 °C 1006.9 hPa NNE 17.9 km/h 27.4 km/h 58% 0.0 mm
21:04 30.7 °C 22 °C 1007.2 hPa NNE 16.4 km/h 25.7 km/h 59.8% 0.0 mm
21:09 30.4 °C 22 °C 1007.2 hPa NE 16.2 km/h 25.9 km/h 61% 0.0 mm
21:14 30.2 °C 22.1 °C 1007.2 hPa NE 14.8 km/h 27.8 km/h 61.9% 0.0 mm
21:19 30 °C 21.9 °C 1007.3 hPa NE 15.1 km/h 27.4 km/h 62% 0.0 mm
21:24 29.8 °C 21.8 °C 1007.3 hPa NE 16.4 km/h 25.9 km/h 62% 0.0 mm
21:29 29.8 °C 21.8 °C 1007.3 hPa NE 16.1 km/h 25.7 km/h 62.3% 0.0 mm
21:34 29.6 °C 21.9 °C 1007.5 hPa NE 14.8 km/h 24.1 km/h 63.1% 0.0 mm
21:39 29.4 °C 21.9 °C 1007.5 hPa NE 14.6 km/h 22.5 km/h 64% 0.0 mm
21:44 29.3 °C 21.8 °C 1007.5 hPa NE 13.7 km/h 22.2 km/h 64% 0.0 mm
21:49 29.3 °C 21.8 °C 1007.7 hPa NE 13.4 km/h 24.5 km/h 64% 0.0 mm
21:54 29.3 °C 21.9 °C 1007.7 hPa NE 12.2 km/h 24.1 km/h 64.5% 0.0 mm
21:59 29.2 °C 22 °C 1007.7 hPa NNE 12.2 km/h 20.9 km/h 65.3% 0.0 mm
22:04 29 °C 22 °C 1008.0 hPa NNE 12.2 km/h 20.9 km/h 66% 0.0 mm
22:09 28.9 °C 22 °C 1008.0 hPa NNE 11.9 km/h 19.3 km/h 66.7% 0.0 mm
22:14 28.8 °C 22 °C 1008.0 hPa NNE 10 km/h 16.7 km/h 67.1% 0.0 mm
22:19 28.7 °C 22.2 °C 1008.2 hPa NNE 9.8 km/h 16.4 km/h 68% 0.0 mm
22:24 28.6 °C 22.1 °C 1008.2 hPa NNE 8.7 km/h 18.5 km/h 68% 0.0 mm
22:29 28.5 °C 22 °C 1008.2 hPa NE 9.2 km/h 19.3 km/h 68% 0.0 mm
22:34 28.5 °C 22 °C 1008.2 hPa NNE 11.9 km/h 19.3 km/h 68% 0.0 mm
22:39 28.4 °C 22 °C 1008.2 hPa NNE 11.5 km/h 16.7 km/h 68.1% 0.0 mm
22:44 28.3 °C 22.1 °C 1008.2 hPa NNE 9.5 km/h 16.1 km/h 69% 0.0 mm
22:49 28.2 °C 22.2 °C 1008.4 hPa NNE 9.4 km/h 16.1 km/h 70% 0.0 mm
22:54 28.1 °C 22.2 °C 1008.4 hPa NNE 8.7 km/h 18 km/h 70.2% 0.0 mm
22:59 28 °C 22.2 °C 1008.4 hPa NNE 8.9 km/h 19.3 km/h 71% 0.0 mm
23:04 27.8 °C 22.3 °C 1008.5 hPa NNE 9.5 km/h 22.2 km/h 71.6% 0.0 mm
23:09 27.7 °C 22.2 °C 1008.5 hPa NE 10.2 km/h 22.5 km/h 72% 0.0 mm
23:14 27.7 °C 22.2 °C 1008.5 hPa NE 13.7 km/h 22.5 km/h 72% 0.0 mm
23:19 27.7 °C 22.2 °C 1008.5 hPa NE 13.2 km/h 19.3 km/h 72% 0.0 mm
23:24 27.6 °C 22.1 °C 1008.4 hPa NNE 11.1 km/h 19.3 km/h 72% 0.0 mm
23:29 27.6 °C 22.1 °C 1008.4 hPa NNE 10.9 km/h 19.3 km/h 72% 0.0 mm
23:34 27.6 °C 22.1 °C 1008.4 hPa NE 10 km/h 16.7 km/h 72% 0.0 mm
23:39 27.6 °C 22 °C 1008.3 hPa NNE 9.7 km/h 16.1 km/h 71.3% 0.0 mm
23:44 27.7 °C 21.9 °C 1008.3 hPa NNE 8.4 km/h 14.8 km/h 71% 0.0 mm
23:49 27.6 °C 22 °C 1008.4 hPa North 8.4 km/h 14.8 km/h 71.4% 0.0 mm
23:54 27.6 °C 22.1 °C 1008.4 hPa North 8.4 km/h 14.5 km/h 72% 0.0 mm
23:59 27.5 °C 21.9 °C 1008.4 hPa NNE 8 km/h 14.5 km/h 71.6% 0.0 mm
Murcia-Puente Tocinos, España
Compliments of Weather Underground - 3 mb

La estación de MeteoMurcia.com, publica sus datos en los siguientes proyectos:

Weather Underground PWS IMURCIAP2 Meteoclimatic www.awekas.at

W3Counter
Web Analytics